createdAt,value
2023-10-10T00:01:47.669Z,52.77
2023-10-10T00:06:51.086Z,51.33
2023-10-10T00:11:54.623Z,51.88
2023-10-10T00:16:56.805Z,51.82
2023-10-10T00:21:59.033Z,50.68
2023-10-10T00:27:15.320Z,52.27
2023-10-10T00:32:24.136Z,53.32
2023-10-10T00:37:35.757Z,52.26
2023-10-10T00:42:43.572Z,52.04
2023-10-10T00:47:51.785Z,52.63
2023-10-10T00:52:57.156Z,50.59
2023-10-10T00:58:00.292Z,51.18
2023-10-10T01:03:21.309Z,52.16
2023-10-10T01:08:32.678Z,50.34
2023-10-10T01:13:35.073Z,51.91
2023-10-10T01:18:43.160Z,50.57
2023-10-10T01:23:46.434Z,49.51
2023-10-10T01:28:51.277Z,49.95
2023-10-10T01:33:52.885Z,49.76
2023-10-10T01:38:57.878Z,50.56
2023-10-10T01:44:11.861Z,49.55
2023-10-10T01:49:15.240Z,46.82
2023-10-10T01:54:19.947Z,47.57
2023-10-10T01:59:25.737Z,46.77
2023-10-10T02:04:30.375Z,50.26
2023-10-10T02:09:35.414Z,50.95
2023-10-10T02:14:37.687Z,51.80
2023-10-10T02:19:42.347Z,51.00
2023-10-10T02:24:50.120Z,50.79
2023-10-10T02:29:54.767Z,51.01
2023-10-10T02:35:27.786Z,50.79
2023-10-10T02:40:32.638Z,51.87
2023-10-10T02:45:37.046Z,53.08
2023-10-10T02:50:41.981Z,50.86
2023-10-10T02:55:51.800Z,51.33
2023-10-10T03:00:58.727Z,52.55
2023-10-10T03:06:07.485Z,52.47
2023-10-10T03:11:37.240Z,52.51
2023-10-10T03:16:46.992Z,52.24
2023-10-10T03:21:48.628Z,51.96
2023-10-10T03:26:51.069Z,51.45
2023-10-10T03:32:11.256Z,52.59
2023-10-10T03:37:42.759Z,53.34
2023-10-10T03:43:02.949Z,54.65
2023-10-10T03:48:23.842Z,53.02
2023-10-10T03:53:43.993Z,52.91
2023-10-10T03:59:04.114Z,52.64
2023-10-10T04:04:24.615Z,53.66
2023-10-10T04:09:45.226Z,51.93
2023-10-10T04:15:05.417Z,50.90
2023-10-10T04:20:26.215Z,50.62
2023-10-10T04:25:46.786Z,49.53
2023-10-10T04:31:06.957Z,48.06
2023-10-10T04:36:27.095Z,47.63
2023-10-10T04:41:47.533Z,47.07
2023-10-10T04:47:07.530Z,48.21
2023-10-10T04:52:27.523Z,50.42
2023-10-10T04:57:47.689Z,52.02
2023-10-10T05:03:08.018Z,50.53
2023-10-10T05:08:27.950Z,52.31
2023-10-10T05:13:48.470Z,52.54
2023-10-10T05:19:08.689Z,52.00
2023-10-10T05:24:10.640Z,53.26
2023-10-10T05:29:12.265Z,53.73
2023-10-10T05:34:16.466Z,53.20
2023-10-10T05:39:22.634Z,54.34
2023-10-10T05:44:24.834Z,52.81
2023-10-10T05:49:31.384Z,53.96
2023-10-10T05:54:33.606Z,54.10
2023-10-10T05:59:35.348Z,53.26
2023-10-10T06:04:37.338Z,56.74
2023-10-10T06:09:42.529Z,55.17
2023-10-10T06:14:44.354Z,56.19
2023-10-10T06:19:47.362Z,57.87
2023-10-10T06:24:49.054Z,60.52
2023-10-10T06:29:50.685Z,57.92
2023-10-10T06:35:05.735Z,56.85
2023-10-10T06:40:09.928Z,57.47
2023-10-10T06:45:12.829Z,56.98
2023-10-10T06:50:14.565Z,56.11
2023-10-10T06:55:22.779Z,56.35
2023-10-10T07:00:33.656Z,54.19
2023-10-10T07:05:35.722Z,53.26
2023-10-10T07:10:38.036Z,55.37
2023-10-10T07:15:41.681Z,55.47
2023-10-10T07:21:03.808Z,53.70
2023-10-10T07:26:26.102Z,54.50
2023-10-10T07:31:35.620Z,52.46
2023-10-10T07:36:37.951Z,53.48
2023-10-10T07:41:46.082Z,54.91
2023-10-10T07:47:06.445Z,51.95
2023-10-10T07:52:17.204Z,52.14
2023-10-10T07:57:29.606Z,51.79
2023-10-10T08:02:34.240Z,53.13
2023-10-10T08:07:36.384Z,54.70
2023-10-10T08:12:38.809Z,52.42
2023-10-10T08:17:52.768Z,52.12
2023-10-10T08:23:00.073Z,52.72
2023-10-10T08:28:01.900Z,53.18
2023-10-10T08:33:04.789Z,53.07
2023-10-10T08:38:07.244Z,52.89
2023-10-10T08:43:10.355Z,53.74
2023-10-10T08:48:17.113Z,51.19
2023-10-10T08:53:21.884Z,52.92
2023-10-10T08:58:24.176Z,50.73
2023-10-10T09:03:27.783Z,51.17
2023-10-10T09:08:29.692Z,50.71
2023-10-10T09:13:33.146Z,49.75
2023-10-10T09:18:34.913Z,51.81
2023-10-10T09:23:43.828Z,49.52
2023-10-10T09:28:56.463Z,50.77
2023-10-10T09:34:07.830Z,49.53
2023-10-10T09:39:12.580Z,48.46
2023-10-10T09:44:24.518Z,47.94
2023-10-10T09:49:41.284Z,48.26
2023-10-10T09:54:45.947Z,47.63
2023-10-10T09:59:54.411Z,47.80
2023-10-10T10:04:57.143Z,48.18
2023-10-10T10:10:18.164Z,48.56
2023-10-10T10:15:25.612Z,48.24
2023-10-10T10:20:50.188Z,47.26
2023-10-10T10:26:05.655Z,47.81
2023-10-10T10:31:17.474Z,47.52
2023-10-10T10:36:19.487Z,46.57
2023-10-10T10:41:41.266Z,48.19
2023-10-10T10:46:49.057Z,46.64
2023-10-10T10:52:13.825Z,46.97
2023-10-10T11:06:17.930Z,46.55
2023-10-10T11:11:41.609Z,45.98
2023-10-10T11:16:47.356Z,46.41
2023-10-10T11:21:50.118Z,46.15
2023-10-10T11:27:12.182Z,46.18
2023-10-10T11:32:15.643Z,45.09
2023-10-10T11:37:32.350Z,45.21
2023-10-10T11:42:35.218Z,44.64
2023-10-10T11:47:46.339Z,43.31
2023-10-10T11:52:58.583Z,43.86
2023-10-10T11:58:07.660Z,43.84
2023-10-10T12:03:35.266Z,44.11
2023-10-10T12:08:39.149Z,43.69
2023-10-10T12:13:40.879Z,42.96
2023-10-10T12:18:50.859Z,42.71
2023-10-10T12:24:00.448Z,42.67
2023-10-10T12:29:03.885Z,42.17
2023-10-10T12:34:09.244Z,42.38
2023-10-10T12:39:16.141Z,43.31
2023-10-10T12:44:18.273Z,41.86
2023-10-10T12:49:20.564Z,41.15
2023-10-10T12:54:22.919Z,40.77
2023-10-10T12:59:31.975Z,40.73
2023-10-10T13:04:39.138Z,40.91
2023-10-10T13:09:44.265Z,39.36
2023-10-10T13:14:51.878Z,39.06
2023-10-10T13:19:54.199Z,37.97
2023-10-10T13:24:55.949Z,39.38
2023-10-10T13:29:57.650Z,38.59
2023-10-10T13:35:01.861Z,38.66
2023-10-10T13:40:07.038Z,38.58
2023-10-10T13:45:13.166Z,38.42
2023-10-10T13:50:29.990Z,39.30
2023-10-10T13:55:35.457Z,38.45
2023-10-10T14:00:53.617Z,38.23
2023-10-10T14:06:09.403Z,38.32
2023-10-10T14:11:22.371Z,37.49
2023-10-10T14:16:24.966Z,37.31
2023-10-10T14:21:27.355Z,36.75
2023-10-10T14:26:32.280Z,37.12
2023-10-10T14:31:46.932Z,38.07
2023-10-10T14:36:52.677Z,38.45
2023-10-10T14:41:59.241Z,37.62
2023-10-10T14:47:05.086Z,37.56
2023-10-10T14:52:07.811Z,37.66
2023-10-10T14:57:24.736Z,37.16
2023-10-10T15:02:28.365Z,36.52
2023-10-10T15:07:30.189Z,36.78
2023-10-10T15:12:34.387Z,37.47
2023-10-10T15:17:36.113Z,38.05
2023-10-10T15:22:42.979Z,37.95
2023-10-10T15:27:44.679Z,38.85
2023-10-10T15:32:48.614Z,38.54
2023-10-10T15:37:50.904Z,39.20
2023-10-10T15:42:53.472Z,38.43
2023-10-10T15:47:55.796Z,39.29
2023-10-10T15:52:57.712Z,39.17
2023-10-10T15:57:59.334Z,40.09
2023-10-10T16:03:01.591Z,40.57
2023-10-10T16:08:09.476Z,40.58
2023-10-10T16:13:11.469Z,40.89
2023-10-10T16:18:13.211Z,41.26
2023-10-10T16:23:14.871Z,40.36
2023-10-10T16:28:16.567Z,39.29
2023-10-10T16:33:22.133Z,39.57
2023-10-10T16:38:24.059Z,39.48
2023-10-10T16:43:25.760Z,39.90
2023-10-10T16:48:27.511Z,39.75
2023-10-10T16:53:31.147Z,40.28
2023-10-10T16:58:32.777Z,40.11
2023-10-10T17:03:34.590Z,41.65
2023-10-10T17:08:37.582Z,40.69
2023-10-10T17:13:40.086Z,40.12
2023-10-10T17:18:46.348Z,39.86
2023-10-10T17:23:51.842Z,40.19
2023-10-10T17:28:55.479Z,39.84
2023-10-10T17:33:58.287Z,40.12
2023-10-10T17:39:01.884Z,39.40
2023-10-10T17:44:10.294Z,40.61
2023-10-10T17:49:13.153Z,40.44
2023-10-10T17:54:17.626Z,40.01
2023-10-10T17:59:20.763Z,40.92
2023-10-10T18:04:26.122Z,40.21
2023-10-10T18:09:33.259Z,41.27
2023-10-10T18:14:35.368Z,41.82
2023-10-10T18:19:41.488Z,42.01
2023-10-10T18:24:43.329Z,41.53
2023-10-10T18:29:45.189Z,41.21
2023-10-10T18:34:46.928Z,42.59
2023-10-10T18:39:48.556Z,42.91
2023-10-10T18:44:50.218Z,41.63
2023-10-10T18:49:51.957Z,42.07
2023-10-10T18:54:53.621Z,41.64
2023-10-10T18:59:55.523Z,42.77
2023-10-10T19:04:57.277Z,41.59
2023-10-10T19:10:03.498Z,42.53
2023-10-10T19:15:05.802Z,43.32
2023-10-10T19:20:08.190Z,43.91
2023-10-10T19:25:13.003Z,43.06
2023-10-10T19:30:17.584Z,43.38
2023-10-10T19:35:22.235Z,43.74
2023-10-10T19:40:29.461Z,43.30
2023-10-10T19:45:31.461Z,44.85
2023-10-10T19:50:39.318Z,45.18
2023-10-10T19:55:45.736Z,45.79
2023-10-10T20:00:47.887Z,45.76
2023-10-10T20:05:49.761Z,44.41
2023-10-10T20:10:51.998Z,47.11
2023-10-10T20:15:54.036Z,44.77
2023-10-10T20:20:56.045Z,46.45
2023-10-10T20:25:57.774Z,47.51
2023-10-10T20:30:59.437Z,47.41
2023-10-10T20:36:03.862Z,47.21
2023-10-10T20:41:12.464Z,46.18
2023-10-10T20:46:19.777Z,45.42
2023-10-10T20:51:26.029Z,45.48
2023-10-10T20:56:28.765Z,47.53
2023-10-10T21:01:31.191Z,45.59
2023-10-10T21:06:32.915Z,44.62
2023-10-10T21:11:34.928Z,44.89
2023-10-10T21:16:36.614Z,45.52
2023-10-10T21:21:38.238Z,46.49
2023-10-10T21:26:40.110Z,46.55
2023-10-10T21:31:42.602Z,48.06
2023-10-10T21:36:44.310Z,45.79
2023-10-10T21:41:46.714Z,46.23
2023-10-10T21:46:52.112Z,47.26
2023-10-10T21:51:54.570Z,46.71
2023-10-10T21:56:56.303Z,47.35
2023-10-10T22:01:58.000Z,47.34
2023-10-10T22:06:59.832Z,47.09
2023-10-10T22:12:01.507Z,50.56
2023-10-10T22:17:08.800Z,49.45
2023-10-10T22:22:11.282Z,48.83
2023-10-10T22:27:13.854Z,48.18
2023-10-10T22:32:16.509Z,47.69
2023-10-10T22:37:18.511Z,49.23
2023-10-10T22:42:21.120Z,46.91
2023-10-10T22:47:22.759Z,47.32
2023-10-10T22:52:24.378Z,48.68
2023-10-10T22:57:26.120Z,49.09
2023-10-10T23:02:32.364Z,48.90
2023-10-10T23:07:34.918Z,47.80
2023-10-10T23:12:37.499Z,48.60
2023-10-10T23:17:40.929Z,47.97
2023-10-10T23:22:43.348Z,48.27
2023-10-10T23:27:45.341Z,47.09
2023-10-10T23:32:48.200Z,46.67
2023-10-10T23:37:53.990Z,47.86
2023-10-10T23:42:55.655Z,47.57
2023-10-10T23:47:57.523Z,48.39
2023-10-10T23:53:03.298Z,48.08
2023-10-10T23:58:06.638Z,48.18
